createdAt,value
2022-08-10T00:03:11.567Z,35.9
2022-08-10T00:08:24.736Z,35.6
2022-08-10T00:13:17.693Z,45.3
2022-08-10T00:18:36.463Z,46
2022-08-10T00:23:28.949Z,51.1
2022-08-10T00:28:31.352Z,50.8
2022-08-10T00:33:33.673Z,53.1
2022-08-10T00:38:36.087Z,45.1
2022-08-10T00:43:38.381Z,42.2
2022-08-10T00:48:41.642Z,51.4
2022-08-10T00:53:44.112Z,56
2022-08-10T00:58:46.782Z,45.7
2022-08-10T01:05:02.198Z,54.8
2022-08-10T01:08:54.958Z,16.8
2022-08-10T01:13:57.217Z,58
2022-08-10T01:19:01.728Z,42
2022-08-10T01:24:04.201Z,45.2
2022-08-10T01:29:06.482Z,43.3
2022-08-10T01:34:09.123Z,40.8
2022-08-10T01:39:13.581Z,81.5
2022-08-10T01:44:16.289Z,71.6
2022-08-10T01:49:22.418Z,29.6
2022-08-10T01:54:24.738Z,37.9
2022-08-10T01:59:27.289Z,25
2022-08-10T02:04:29.763Z,12.3
2022-08-10T02:09:32.208Z,11.9
2022-08-10T02:14:35.594Z,10.9
2022-08-10T02:19:38.135Z,12.3
2022-08-10T02:24:40.785Z,12.9
2022-08-10T02:29:44.528Z,8.8
2022-08-10T02:34:51.691Z,9.3
2022-08-10T02:39:54.746Z,12.8
2022-08-10T02:45:30.613Z,10.8
2022-08-10T02:50:04.874Z,8.3
2022-08-10T02:55:19.392Z,13.5
2022-08-10T03:00:13.811Z,9.9
2022-08-10T03:05:16.095Z,13.6
2022-08-10T03:10:18.652Z,8.4
2022-08-10T03:15:21.521Z,19.8
2022-08-10T03:20:40.046Z,589.6
2022-08-10T03:25:32.838Z,536.3
2022-08-10T03:30:35.656Z,94.9
2022-08-10T03:35:38.134Z,674.1
2022-08-10T03:40:47.527Z,496
2022-08-10T03:45:57.101Z,641.6
2022-08-10T03:50:59.565Z,642.9
2022-08-10T03:56:32.771Z,642
2022-08-10T04:01:05.607Z,643.6
2022-08-10T04:06:08.286Z,645.2
2022-08-10T04:11:10.700Z,645.2
2022-08-10T04:16:13.143Z,645.2
2022-08-10T04:21:15.480Z,644.5
2022-08-10T04:26:17.857Z,480.9
2022-08-10T04:31:20.514Z,228.4
2022-08-10T04:36:22.806Z,133
2022-08-10T04:41:25.374Z,180.8
2022-08-10T04:46:58.670Z,237.1
2022-08-10T04:51:32.740Z,523.3
2022-08-10T04:56:35.200Z,379.5
2022-08-10T05:02:32.413Z,369.7
2022-08-10T05:06:46.425Z,247.8
2022-08-10T05:11:49.205Z,317.2
2022-08-10T05:16:51.694Z,343.8
2022-08-10T05:22:05.773Z,282.2
2022-08-10T05:27:10.710Z,274.3
2022-08-10T05:32:03.237Z,406.3
2022-08-10T05:37:05.985Z,371
2022-08-10T05:42:06.329Z,296.3
2022-08-10T05:47:13.857Z,287.8
2022-08-10T05:54:06.677Z,2
2022-08-10T05:58:29.392Z,74.3
2022-08-10T06:03:31.646Z,155.8
2022-08-10T06:08:33.929Z,341.1
2022-08-10T06:14:13.592Z,279.2
2022-08-10T06:18:39.037Z,230
2022-08-10T06:23:41.539Z,333.2
2022-08-10T06:29:02.591Z,401.7
2022-08-10T06:33:45.981Z,407.9
2022-08-10T06:38:48.670Z,451.5
2022-08-10T06:43:52.944Z,624.5
2022-08-10T06:48:55.450Z,500.7
2022-08-10T06:53:58.243Z,613.9
2022-08-10T06:59:00.691Z,554.4
2022-08-10T07:04:02.959Z,497.4
2022-08-10T07:09:05.268Z,555.9
2022-08-10T07:14:18.737Z,580.2
2022-08-10T07:19:11.303Z,509.7
2022-08-10T07:24:13.853Z,461.7
2022-08-10T07:29:54.856Z,373.9
2022-08-10T07:34:30.149Z,232.4
2022-08-10T07:40:05.294Z,19.6
2022-08-10T07:44:28.122Z,15.9
2022-08-10T07:49:30.488Z,12.1
2022-08-10T07:54:33.335Z,6.3
2022-08-10T07:59:36.646Z,10.7
2022-08-10T08:04:39.085Z,5
2022-08-10T08:10:01.016Z,1.9
2022-08-10T08:14:44.148Z,1.5
2022-08-10T08:19:56.166Z,1.6
2022-08-10T08:24:53.497Z,1.5
2022-08-10T08:29:56.149Z,1.5
2022-08-10T08:35:00.994Z,1.4
2022-08-10T08:40:03.480Z,1.4
2022-08-10T08:45:05.777Z,1.4
2022-08-10T08:50:10.908Z,1.4
2022-08-10T08:56:07.069Z,1.2
2022-08-10T09:00:20.380Z,1.3
2022-08-10T09:05:23.390Z,1.4
2022-08-10T09:10:28.455Z,1.6
2022-08-10T09:15:41.944Z,10.4
2022-08-10T09:20:45.236Z,1.9
2022-08-10T09:25:48.366Z,1.6
2022-08-10T09:31:22.981Z,1.6
2022-08-10T09:36:32.825Z,2
2022-08-10T09:41:09.245Z,1.2
2022-08-10T09:46:13.859Z,1.4
2022-08-10T09:51:51.766Z,1.2
2022-08-10T09:56:23.252Z,1.2
2022-08-10T10:02:02.422Z,1.5
2022-08-10T10:06:28.311Z,5.2
2022-08-10T10:11:33.975Z,1.5
2022-08-10T10:16:36.488Z,1.4
2022-08-10T10:21:56.966Z,3
2022-08-10T10:26:39.624Z,1.5
2022-08-10T10:31:41.992Z,1.2
2022-08-10T10:36:44.610Z,1.2
2022-08-10T10:42:05.714Z,2.1
2022-08-10T10:46:55.351Z,1.2
2022-08-10T10:52:02.907Z,1.3
2022-08-10T10:57:05.666Z,1.6
2022-08-10T11:02:08.642Z,1.1
2022-08-10T11:07:11.132Z,1.5
2022-08-10T11:12:16.130Z,1.3
2022-08-10T11:17:18.514Z,1.4
2022-08-10T11:22:21.121Z,1.5
2022-08-10T11:27:23.929Z,3.3
2022-08-10T11:32:27.903Z,1.2
2022-08-10T11:37:28.552Z,1.6
2022-08-10T11:42:36.736Z,1.3
2022-08-10T11:47:39.539Z,2.3
2022-08-10T11:52:42.312Z,1.5
2022-08-10T11:57:55.628Z,1.1
2022-08-10T12:02:51.347Z,1.7
2022-08-10T12:10:13.681Z,1.3
2022-08-10T12:12:57.147Z,1
2022-08-10T12:17:59.710Z,1.5
2022-08-10T12:23:02.162Z,1.2
2022-08-10T12:28:04.647Z,1
2022-08-10T12:33:08.728Z,1.4
2022-08-10T12:38:11.575Z,2.8
2022-08-10T12:44:08.757Z,1.2
2022-08-10T12:48:22.128Z,1.3
2022-08-10T12:53:22.652Z,1.3
2022-08-10T12:59:01.735Z,1.1
2022-08-10T13:04:25.244Z,1.7
2022-08-10T13:08:37.833Z,1.4
2022-08-10T13:13:43.624Z,1.9
2022-08-10T13:18:44.110Z,1.5
2022-08-10T13:24:05.891Z,1.3
2022-08-10T13:28:50.761Z,1.6
2022-08-10T13:34:45.058Z,1.3
2022-08-10T13:38:58.056Z,1.2
2022-08-10T13:44:00.662Z,1.3
2022-08-10T13:49:03.370Z,1.1
2022-08-10T13:54:06.038Z,1
2022-08-10T13:59:11.029Z,1.5
2022-08-10T14:04:18.659Z,4.8
2022-08-10T14:09:21.313Z,1.6
2022-08-10T14:14:23.854Z,1.2
2022-08-10T14:19:28.629Z,1.3
2022-08-10T14:24:33.693Z,1.3
2022-08-10T14:29:36.690Z,1.6
2022-08-10T14:36:24.659Z,1.5
2022-08-10T14:39:47.554Z,1.5
2022-08-10T14:44:50.790Z,1.5
2022-08-10T14:49:58.972Z,1.6
2022-08-10T14:55:05.332Z,1.1
2022-08-10T15:00:36.681Z,1.2
2022-08-10T15:05:10.131Z,2.1
2022-08-10T15:10:12.780Z,1.5
2022-08-10T15:15:29.162Z,1.3
2022-08-10T15:20:30.806Z,1.2
2022-08-10T15:25:37.478Z,1.3
2022-08-10T15:30:38.330Z,1.3
2022-08-10T15:35:41.276Z,1.5
2022-08-10T15:40:56.518Z,1.4
2022-08-10T15:45:44.732Z,1.5
2022-08-10T15:50:47.536Z,1.4
2022-08-10T15:55:52.494Z,1.5
2022-08-10T16:00:55.466Z,1.3
2022-08-10T16:06:03.825Z,1.3
2022-08-10T16:11:06.801Z,3.2
2022-08-10T16:16:09.498Z,1.6
2022-08-10T16:21:11.785Z,1.8
2022-08-10T16:26:18.410Z,2.3
2022-08-10T16:31:23.257Z,1.7
2022-08-10T16:36:25.626Z,1.6
2022-08-10T16:42:06.096Z,1.4
2022-08-10T16:46:28.710Z,1.5
2022-08-10T16:51:31.309Z,1.2
2022-08-10T16:56:34.848Z,1.4
2022-08-10T17:01:42.302Z,1.5
2022-08-10T17:06:46.151Z,1.8
2022-08-10T17:11:51.902Z,1.2
2022-08-10T17:16:54.274Z,1.2
2022-08-10T17:21:55.630Z,1.3
2022-08-10T17:26:58.141Z,1.1
2022-08-10T17:32:07.155Z,1.4
2022-08-10T17:37:09.460Z,1.5
2022-08-10T17:42:11.780Z,1.8
2022-08-10T17:47:20.961Z,1.2
2022-08-10T17:52:27.912Z,1.3
2022-08-10T17:57:30.631Z,1.2
2022-08-10T18:02:33.389Z,1.1
2022-08-10T18:07:36.505Z,1.1
2022-08-10T18:12:40.116Z,1.2
2022-08-10T18:17:43.153Z,1.6
2022-08-10T18:22:45.727Z,1.1
2022-08-10T18:28:06.437Z,1.2
2022-08-10T18:32:49.972Z,1.5
2022-08-10T18:37:52.553Z,9.9
2022-08-10T18:42:57.604Z,14.1
2022-08-10T18:48:01.136Z,255.9
2022-08-10T18:53:04.686Z,98.6
2022-08-10T18:58:09.667Z,19.7
2022-08-10T19:03:12.429Z,326.8
2022-08-10T19:08:31.786Z,201.6
2022-08-10T19:13:24.575Z,147.7
2022-08-10T19:18:27.914Z,125.2
2022-08-10T19:23:31.889Z,116.6
2022-08-10T19:28:35.103Z,155.5
2022-08-10T19:33:37.780Z,168.3
2022-08-10T19:38:51.392Z,200
2022-08-10T19:44:02.750Z,235
2022-08-10T19:48:45.297Z,274.3
2022-08-10T19:53:47.769Z,275.3
2022-08-10T19:58:50.647Z,317.1
2022-08-10T20:03:53.160Z,413.9
2022-08-10T20:08:55.581Z,428
2022-08-10T20:13:58.210Z,452
2022-08-10T20:19:00.623Z,456.6
2022-08-10T20:24:02.958Z,377.9
2022-08-10T20:29:05.331Z,402.7
2022-08-10T20:34:07.822Z,419
2022-08-10T20:39:10.648Z,480.1
2022-08-10T20:44:13.896Z,465.6
2022-08-10T20:49:16.605Z,470.1
2022-08-10T20:54:21.052Z,431.3
2022-08-10T20:59:36.977Z,434.3
2022-08-10T21:04:26.570Z,486.9
2022-08-10T21:09:29.780Z,473.6
2022-08-10T21:14:32.512Z,383
2022-08-10T21:19:36.690Z,441.2
2022-08-10T21:24:41.794Z,456.9
2022-08-10T21:29:56.815Z,439.1
2022-08-10T21:34:56.197Z,476.5
2022-08-10T21:39:50.465Z,484
2022-08-10T21:44:55.047Z,513
2022-08-10T22:31:31.973Z,508.1
2022-08-10T22:37:47.646Z,1.2
2022-08-10T22:43:12.086Z,123.8
2022-08-10T22:47:55.865Z,99.8
2022-08-10T22:53:05.001Z,100.3
2022-08-10T22:58:08.065Z,105.9
2022-08-10T23:03:11.014Z,119.2
2022-08-10T23:08:30.959Z,117.6
2022-08-10T23:13:37.289Z,73.6
2022-08-10T23:18:30.095Z,50.3
2022-08-10T23:23:32.567Z,78.5
2022-08-10T23:29:10.429Z,27.7
2022-08-10T23:33:38.825Z,20.5
2022-08-10T23:38:41.444Z,32.8
2022-08-10T23:44:04.564Z,27.8
2022-08-10T23:48:47.081Z,37.6
2022-08-10T23:53:49.589Z,32.7
2022-08-10T23:58:52.084Z,38
